sensor_id;sensor_type;location;lat;lon;timestamp;P1;durP1;ratioP1;P2;durP2;ratioP2
75429;SDS011;64127;51.488;5.462;2022-11-18T00:01:10;3.80;;;2.43;;
75429;SDS011;64127;51.488;5.462;2022-11-18T00:03:44;4.97;;;2.67;;
75429;SDS011;64127;51.488;5.462;2022-11-18T00:06:21;5.43;;;2.60;;
75429;SDS011;64127;51.488;5.462;2022-11-18T00:08:57;6.87;;;2.50;;
75429;SDS011;64127;51.488;5.462;2022-11-18T00:11:30;6.13;;;2.70;;
75429;SDS011;64127;51.488;5.462;2022-11-18T00:14:22;2.97;;;2.27;;
75429;SDS011;64127;51.488;5.462;2022-11-18T00:17:01;3.50;;;2.40;;
75429;SDS011;64127;51.488;5.462;2022-11-18T00:19:36;5.03;;;2.53;;
75429;SDS011;64127;51.488;5.462;2022-11-18T00:22:10;4.53;;;2.20;;
75429;SDS011;64127;51.488;5.462;2022-11-18T00:24:43;4.80;;;2.50;;
75429;SDS011;64127;51.488;5.462;2022-11-18T00:27:15;3.60;;;2.40;;
75429;SDS011;64127;51.488;5.462;2022-11-18T00:29:47;4.60;;;2.20;;
75429;SDS011;64127;51.488;5.462;2022-11-18T00:32:19;6.30;;;2.47;;
75429;SDS011;64127;51.488;5.462;2022-11-18T00:34:51;6.40;;;2.50;;
75429;SDS011;64127;51.488;5.462;2022-11-18T00:37:23;3.23;;;2.40;;
75429;SDS011;64127;51.488;5.462;2022-11-18T00:39:55;5.20;;;2.50;;
75429;SDS011;64127;51.488;5.462;2022-11-18T00:42:27;3.90;;;2.30;;
75429;SDS011;64127;51.488;5.462;2022-11-18T00:45:18;4.03;;;2.27;;
75429;SDS011;64127;51.488;5.462;2022-11-18T00:47:51;3.83;;;2.43;;
75429;SDS011;64127;51.488;5.462;2022-11-18T00:50:23;3.87;;;2.40;;
75429;SDS011;64127;51.488;5.462;2022-11-18T00:52:56;3.37;;;2.43;;
75429;SDS011;64127;51.488;5.462;2022-11-18T00:55:28;4.10;;;2.40;;
75429;SDS011;64127;51.488;5.462;2022-11-18T00:57:59;5.87;;;2.30;;
75429;SDS011;64127;51.488;5.462;2022-11-18T01:00:31;4.00;;;2.10;;
75429;SDS011;64127;51.488;5.462;2022-11-18T01:03:03;3.90;;;2.13;;
75429;SDS011;64127;51.488;5.462;2022-11-18T01:05:36;5.10;;;2.30;;
75429;SDS011;64127;51.488;5.462;2022-11-18T01:08:09;3.40;;;2.27;;
75429;SDS011;64127;51.488;5.462;2022-11-18T01:10:43;2.97;;;2.30;;
75429;SDS011;64127;51.488;5.462;2022-11-18T01:13:17;5.67;;;2.50;;
75429;SDS011;64127;51.488;5.462;2022-11-18T01:15:55;2.63;;;1.87;;
75429;SDS011;64127;51.488;5.462;2022-11-18T01:18:29;5.67;;;2.03;;
75429;SDS011;64127;51.488;5.462;2022-11-18T01:21:02;2.70;;;2.03;;
75429;SDS011;64127;51.488;5.462;2022-11-18T01:23:34;4.27;;;2.10;;
75429;SDS011;64127;51.488;5.462;2022-11-18T01:26:08;5.20;;;2.30;;
75429;SDS011;64127;51.488;5.462;2022-11-18T01:28:43;3.37;;;2.03;;
75429;SDS011;64127;51.488;5.462;2022-11-18T01:31:17;4.63;;;2.40;;
75429;SDS011;64127;51.488;5.462;2022-11-18T01:33:49;4.20;;;2.30;;
75429;SDS011;64127;51.488;5.462;2022-11-18T01:36:23;3.53;;;2.30;;
75429;SDS011;64127;51.488;5.462;2022-11-18T01:38:58;4.73;;;2.30;;
75429;SDS011;64127;51.488;5.462;2022-11-18T01:41:31;3.43;;;2.00;;
75429;SDS011;64127;51.488;5.462;2022-11-18T01:44:04;3.90;;;2.40;;
75429;SDS011;64127;51.488;5.462;2022-11-18T01:47:14;4.03;;;2.10;;
75429;SDS011;64127;51.488;5.462;2022-11-18T01:49:47;2.47;;;1.70;;
75429;SDS011;64127;51.488;5.462;2022-11-18T01:52:19;4.70;;;2.20;;
75429;SDS011;64127;51.488;5.462;2022-11-18T01:54:55;3.97;;;2.10;;
75429;SDS011;64127;51.488;5.462;2022-11-18T01:57:35;5.23;;;2.10;;
75429;SDS011;64127;51.488;5.462;2022-11-18T02:00:07;3.53;;;2.00;;
75429;SDS011;64127;51.488;5.462;2022-11-18T02:02:40;4.37;;;2.10;;
75429;SDS011;64127;51.488;5.462;2022-11-18T02:05:12;3.43;;;2.00;;
75429;SDS011;64127;51.488;5.462;2022-11-18T02:07:46;3.37;;;2.10;;
75429;SDS011;64127;51.488;5.462;2022-11-18T02:10:20;3.30;;;1.93;;
75429;SDS011;64127;51.488;5.462;2022-11-18T02:12:55;4.37;;;2.07;;
75429;SDS011;64127;51.488;5.462;2022-11-18T02:15:34;3.30;;;1.90;;
75429;SDS011;64127;51.488;5.462;2022-11-18T02:18:31;3.77;;;2.00;;
75429;SDS011;64127;51.488;5.462;2022-11-18T02:24:32;4.17;;;1.87;;
75429;SDS011;64127;51.488;5.462;2022-11-18T02:30:18;5.03;;;1.93;;
75429;SDS011;64127;51.488;5.462;2022-11-18T02:32:55;3.30;;;1.83;;
75429;SDS011;64127;51.488;5.462;2022-11-18T02:35:43;3.27;;;1.90;;
75429;SDS011;64127;51.488;5.462;2022-11-18T02:38:28;3.60;;;1.80;;
75429;SDS011;64127;51.488;5.462;2022-11-18T02:41:08;2.73;;;1.80;;
75429;SDS011;64127;51.488;5.462;2022-11-18T02:43:47;3.67;;;2.03;;
75429;SDS011;64127;51.488;5.462;2022-11-18T02:46:27;3.70;;;2.30;;
75429;SDS011;64127;51.488;5.462;2022-11-18T02:49:14;4.83;;;1.93;;
75429;SDS011;64127;51.488;5.462;2022-11-18T02:51:53;3.27;;;1.80;;
75429;SDS011;64127;51.488;5.462;2022-11-18T02:54:27;4.83;;;2.00;;
75429;SDS011;64127;51.488;5.462;2022-11-18T02:57:01;4.13;;;2.20;;
75429;SDS011;64127;51.488;5.462;2022-11-18T02:59:34;2.73;;;1.80;;
75429;SDS011;64127;51.488;5.462;2022-11-18T03:02:07;4.00;;;2.20;;
75429;SDS011;64127;51.488;5.462;2022-11-18T03:04:47;3.37;;;1.90;;
75429;SDS011;64127;51.488;5.462;2022-11-18T03:07:27;5.03;;;2.10;;
75429;SDS011;64127;51.488;5.462;2022-11-18T03:10:05;4.13;;;2.10;;
75429;SDS011;64127;51.488;5.462;2022-11-18T03:12:45;2.77;;;2.00;;
75429;SDS011;64127;51.488;5.462;2022-11-18T03:15:55;3.30;;;2.40;;
75429;SDS011;64127;51.488;5.462;2022-11-18T03:21:38;3.43;;;1.97;;
75429;SDS011;64127;51.488;5.462;2022-11-18T03:24:17;3.40;;;2.20;;
75429;SDS011;64127;51.488;5.462;2022-11-18T03:27:49;3.73;;;2.17;;
75429;SDS011;64127;51.488;5.462;2022-11-18T03:30:03;4.30;;;2.00;;
75429;SDS011;64127;51.488;5.462;2022-11-18T03:32:41;3.70;;;2.10;;
75429;SDS011;64127;51.488;5.462;2022-11-18T03:35:21;4.63;;;2.03;;
75429;SDS011;64127;51.488;5.462;2022-11-18T03:38:05;2.97;;;2.20;;
75429;SDS011;64127;51.488;5.462;2022-11-18T03:40:47;4.00;;;2.30;;
75429;SDS011;64127;51.488;5.462;2022-11-18T03:43:27;3.93;;;2.30;;
75429;SDS011;64127;51.488;5.462;2022-11-18T03:46:22;3.87;;;2.10;;
75429;SDS011;64127;51.488;5.462;2022-11-18T03:49:20;4.97;;;2.40;;
75429;SDS011;64127;51.488;5.462;2022-11-18T03:52:05;4.03;;;2.10;;
75429;SDS011;64127;51.488;5.462;2022-11-18T03:54:45;5.70;;;2.73;;
75429;SDS011;64127;51.488;5.462;2022-11-18T04:00:41;4.70;;;2.53;;
75429;SDS011;64127;51.488;5.462;2022-11-18T04:03:18;3.97;;;2.63;;
75429;SDS011;64127;51.488;5.462;2022-11-18T04:05:50;3.77;;;2.40;;
75429;SDS011;64127;51.488;5.462;2022-11-18T04:08:41;3.97;;;2.70;;
75429;SDS011;64127;51.488;5.462;2022-11-18T04:11:18;3.70;;;2.43;;
75429;SDS011;64127;51.488;5.462;2022-11-18T04:14:18;4.53;;;2.47;;
75429;SDS011;64127;51.488;5.462;2022-11-18T04:16:51;8.43;;;2.70;;
75429;SDS011;64127;51.488;5.462;2022-11-18T04:19:25;5.33;;;2.57;;
75429;SDS011;64127;51.488;5.462;2022-11-18T04:21:58;4.63;;;2.63;;
75429;SDS011;64127;51.488;5.462;2022-11-18T04:24:30;4.17;;;2.90;;
75429;SDS011;64127;51.488;5.462;2022-11-18T04:27:02;4.23;;;2.63;;
75429;SDS011;64127;51.488;5.462;2022-11-18T04:29:35;4.30;;;2.73;;
75429;SDS011;64127;51.488;5.462;2022-11-18T04:32:07;4.20;;;2.40;;
75429;SDS011;64127;51.488;5.462;2022-11-18T04:34:39;4.73;;;2.20;;
75429;SDS011;64127;51.488;5.462;2022-11-18T04:37:11;4.70;;;2.60;;
75429;SDS011;64127;51.488;5.462;2022-11-18T04:39:43;3.90;;;2.30;;
75429;SDS011;64127;51.488;5.462;2022-11-18T04:42:15;5.00;;;2.73;;
75429;SDS011;64127;51.488;5.462;2022-11-18T04:44:47;5.37;;;2.70;;
75429;SDS011;64127;51.488;5.462;2022-11-18T04:47:19;5.30;;;2.60;;
75429;SDS011;64127;51.488;5.462;2022-11-18T04:49:51;4.33;;;2.63;;
75429;SDS011;64127;51.488;5.462;2022-11-18T04:52:23;4.00;;;2.70;;
75429;SDS011;64127;51.488;5.462;2022-11-18T04:54:55;3.80;;;2.50;;
75429;SDS011;64127;51.488;5.462;2022-11-18T04:57:27;3.10;;;2.60;;
75429;SDS011;64127;51.488;5.462;2022-11-18T04:59:59;4.83;;;2.60;;
75429;SDS011;64127;51.488;5.462;2022-11-18T05:02:31;5.33;;;3.13;;
75429;SDS011;64127;51.488;5.462;2022-11-18T05:05:03;5.20;;;2.83;;
75429;SDS011;64127;51.488;5.462;2022-11-18T05:07:36;7.10;;;2.90;;
75429;SDS011;64127;51.488;5.462;2022-11-18T05:10:08;5.97;;;2.93;;
75429;SDS011;64127;51.488;5.462;2022-11-18T05:12:40;4.07;;;2.87;;
75429;SDS011;64127;51.488;5.462;2022-11-18T05:15:22;4.13;;;2.90;;
75429;SDS011;64127;51.488;5.462;2022-11-18T05:17:54;5.17;;;3.40;;
75429;SDS011;64127;51.488;5.462;2022-11-18T05:20:26;4.20;;;2.97;;
75429;SDS011;64127;51.488;5.462;2022-11-18T05:22:58;4.60;;;3.30;;
75429;SDS011;64127;51.488;5.462;2022-11-18T05:25:30;5.50;;;3.23;;
75429;SDS011;64127;51.488;5.462;2022-11-18T05:28:02;6.43;;;3.60;;
75429;SDS011;64127;51.488;5.462;2022-11-18T05:30:34;5.07;;;3.20;;
75429;SDS011;64127;51.488;5.462;2022-11-18T05:33:06;5.57;;;3.20;;
75429;SDS011;64127;51.488;5.462;2022-11-18T05:35:38;5.50;;;3.57;;
75429;SDS011;64127;51.488;5.462;2022-11-18T05:38:10;4.17;;;2.97;;
75429;SDS011;64127;51.488;5.462;2022-11-18T05:40:42;3.63;;;3.27;;
75429;SDS011;64127;51.488;5.462;2022-11-18T05:43:14;5.83;;;3.43;;
75429;SDS011;64127;51.488;5.462;2022-11-18T05:45:48;4.43;;;3.23;;
75429;SDS011;64127;51.488;5.462;2022-11-18T05:48:21;5.73;;;3.60;;
75429;SDS011;64127;51.488;5.462;2022-11-18T05:50:53;4.97;;;3.27;;
75429;SDS011;64127;51.488;5.462;2022-11-18T05:53:26;5.77;;;3.20;;
75429;SDS011;64127;51.488;5.462;2022-11-18T05:58:50;5.93;;;3.53;;
75429;SDS011;64127;51.488;5.462;2022-11-18T06:01:23;5.07;;;3.50;;
75429;SDS011;64127;51.488;5.462;2022-11-18T06:04:01;4.77;;;3.40;;
75429;SDS011;64127;51.488;5.462;2022-11-18T06:06:42;6.17;;;3.77;;
75429;SDS011;64127;51.488;5.462;2022-11-18T06:09:18;4.77;;;3.53;;
75429;SDS011;64127;51.488;5.462;2022-11-18T06:11:56;5.47;;;3.67;;
75429;SDS011;64127;51.488;5.462;2022-11-18T06:14:39;5.60;;;3.90;;
75429;SDS011;64127;51.488;5.462;2022-11-18T06:17:19;5.37;;;3.83;;
75429;SDS011;64127;51.488;5.462;2022-11-18T06:19:59;4.87;;;3.50;;
75429;SDS011;64127;51.488;5.462;2022-11-18T06:22:34;5.57;;;3.97;;
75429;SDS011;64127;51.488;5.462;2022-11-18T06:25:06;6.87;;;4.20;;
75429;SDS011;64127;51.488;5.462;2022-11-18T06:27:38;4.93;;;3.97;;
75429;SDS011;64127;51.488;5.462;2022-11-18T06:30:13;6.70;;;4.20;;
75429;SDS011;64127;51.488;5.462;2022-11-18T06:32:46;6.20;;;3.97;;
75429;SDS011;64127;51.488;5.462;2022-11-18T06:35:18;7.40;;;4.07;;
75429;SDS011;64127;51.488;5.462;2022-11-18T06:37:50;8.33;;;4.60;;
75429;SDS011;64127;51.488;5.462;2022-11-18T06:40:22;7.87;;;4.33;;
75429;SDS011;64127;51.488;5.462;2022-11-18T06:42:54;5.80;;;4.10;;
75429;SDS011;64127;51.488;5.462;2022-11-18T06:45:44;6.13;;;4.20;;
75429;SDS011;64127;51.488;5.462;2022-11-18T06:48:39;9.03;;;4.40;;
75429;SDS011;64127;51.488;5.462;2022-11-18T06:51:11;6.07;;;4.20;;
75429;SDS011;64127;51.488;5.462;2022-11-18T06:53:43;9.27;;;3.97;;
75429;SDS011;64127;51.488;5.462;2022-11-18T06:56:16;6.23;;;3.53;;
75429;SDS011;64127;51.488;5.462;2022-11-18T06:58:54;4.10;;;3.50;;
75429;SDS011;64127;51.488;5.462;2022-11-18T07:01:29;4.97;;;3.43;;
75429;SDS011;64127;51.488;5.462;2022-11-18T07:04:04;6.40;;;3.60;;
75429;SDS011;64127;51.488;5.462;2022-11-18T07:06:36;8.40;;;3.80;;
75429;SDS011;64127;51.488;5.462;2022-11-18T07:09:08;8.00;;;3.80;;
75429;SDS011;64127;51.488;5.462;2022-11-18T07:11:41;4.63;;;3.43;;
75429;SDS011;64127;51.488;5.462;2022-11-18T07:14:13;6.77;;;3.53;;
75429;SDS011;64127;51.488;5.462;2022-11-18T07:16:45;5.33;;;3.73;;
75429;SDS011;64127;51.488;5.462;2022-11-18T07:19:17;4.77;;;3.30;;
75429;SDS011;64127;51.488;5.462;2022-11-18T07:21:49;4.67;;;3.27;;
75429;SDS011;64127;51.488;5.462;2022-11-18T07:24:21;6.77;;;3.50;;
75429;SDS011;64127;51.488;5.462;2022-11-18T07:26:53;5.20;;;3.30;;
75429;SDS011;64127;51.488;5.462;2022-11-18T07:29:25;7.20;;;3.43;;
75429;SDS011;64127;51.488;5.462;2022-11-18T07:31:57;6.67;;;3.30;;
75429;SDS011;64127;51.488;5.462;2022-11-18T07:34:29;6.57;;;3.30;;
75429;SDS011;64127;51.488;5.462;2022-11-18T07:37:01;6.13;;;3.33;;
75429;SDS011;64127;51.488;5.462;2022-11-18T07:39:33;5.17;;;3.40;;
75429;SDS011;64127;51.488;5.462;2022-11-18T07:42:05;7.27;;;3.37;;
75429;SDS011;64127;51.488;5.462;2022-11-18T07:44:37;4.90;;;3.60;;
75429;SDS011;64127;51.488;5.462;2022-11-18T07:47:09;4.83;;;3.30;;
75429;SDS011;64127;51.488;5.462;2022-11-18T07:49:41;5.50;;;3.57;;
75429;SDS011;64127;51.488;5.462;2022-11-18T07:52:13;5.90;;;3.57;;
75429;SDS011;64127;51.488;5.462;2022-11-18T07:54:45;6.20;;;3.43;;
75429;SDS011;64127;51.488;5.462;2022-11-18T07:57:17;6.17;;;3.70;;
75429;SDS011;64127;51.488;5.462;2022-11-18T07:59:49;5.83;;;3.53;;
75429;SDS011;64127;51.488;5.462;2022-11-18T08:02:21;6.50;;;3.83;;
75429;SDS011;64127;51.488;5.462;2022-11-18T08:04:54;4.83;;;3.63;;
75429;SDS011;64127;51.488;5.462;2022-11-18T08:07:26;4.37;;;3.50;;
75429;SDS011;64127;51.488;5.462;2022-11-18T08:09:58;6.43;;;3.80;;
75429;SDS011;64127;51.488;5.462;2022-11-18T08:12:30;7.47;;;3.80;;
75429;SDS011;64127;51.488;5.462;2022-11-18T08:15:02;6.50;;;3.90;;
75429;SDS011;64127;51.488;5.462;2022-11-18T08:17:34;5.40;;;3.67;;
75429;SDS011;64127;51.488;5.462;2022-11-18T08:20:06;5.60;;;3.87;;
75429;SDS011;64127;51.488;5.462;2022-11-18T08:22:39;7.03;;;3.87;;
75429;SDS011;64127;51.488;5.462;2022-11-18T08:25:11;7.67;;;4.10;;
75429;SDS011;64127;51.488;5.462;2022-11-18T08:27:43;7.07;;;3.90;;
75429;SDS011;64127;51.488;5.462;2022-11-18T08:30:15;5.83;;;3.77;;
75429;SDS011;64127;51.488;5.462;2022-11-18T08:32:47;8.13;;;4.07;;
75429;SDS011;64127;51.488;5.462;2022-11-18T08:35:19;7.80;;;3.70;;
75429;SDS011;64127;51.488;5.462;2022-11-18T08:37:51;5.37;;;3.80;;
75429;SDS011;64127;51.488;5.462;2022-11-18T08:40:24;4.67;;;3.77;;
75429;SDS011;64127;51.488;5.462;2022-11-18T08:42:56;5.03;;;3.70;;
75429;SDS011;64127;51.488;5.462;2022-11-18T08:45:28;5.30;;;3.70;;
75429;SDS011;64127;51.488;5.462;2022-11-18T08:48:00;4.70;;;3.60;;
75429;SDS011;64127;51.488;5.462;2022-11-18T08:50:32;5.40;;;3.53;;
75429;SDS011;64127;51.488;5.462;2022-11-18T08:53:04;5.63;;;3.77;;
75429;SDS011;64127;51.488;5.462;2022-11-18T08:55:36;6.27;;;3.67;;
75429;SDS011;64127;51.488;5.462;2022-11-18T08:58:08;5.50;;;3.30;;
75429;SDS011;64127;51.488;5.462;2022-11-18T09:00:40;3.53;;;3.13;;
75429;SDS011;64127;51.488;5.462;2022-11-18T09:03:12;5.10;;;3.73;;
75429;SDS011;64127;51.488;5.462;2022-11-18T09:05:44;4.50;;;3.53;;
75429;SDS011;64127;51.488;5.462;2022-11-18T09:08:16;5.60;;;3.40;;
75429;SDS011;64127;51.488;5.462;2022-11-18T09:10:48;6.00;;;3.30;;
75429;SDS011;64127;51.488;5.462;2022-11-18T09:13:20;8.00;;;3.80;;
75429;SDS011;64127;51.488;5.462;2022-11-18T09:16:12;5.63;;;3.47;;
75429;SDS011;64127;51.488;5.462;2022-11-18T09:18:44;6.77;;;3.50;;
75429;SDS011;64127;51.488;5.462;2022-11-18T09:21:16;5.93;;;3.23;;
75429;SDS011;64127;51.488;5.462;2022-11-18T09:23:49;4.23;;;3.10;;
75429;SDS011;64127;51.488;5.462;2022-11-18T09:26:21;8.37;;;3.27;;
75429;SDS011;64127;51.488;5.462;2022-11-18T09:28:54;6.20;;;2.90;;
75429;SDS011;64127;51.488;5.462;2022-11-18T09:31:26;5.83;;;3.03;;
75429;SDS011;64127;51.488;5.462;2022-11-18T09:33:58;5.53;;;3.17;;
75429;SDS011;64127;51.488;5.462;2022-11-18T09:36:31;5.60;;;2.87;;
75429;SDS011;64127;51.488;5.462;2022-11-18T09:39:03;4.50;;;3.00;;
75429;SDS011;64127;51.488;5.462;2022-11-18T09:41:50;5.07;;;2.93;;
75429;SDS011;64127;51.488;5.462;2022-11-18T09:44:43;6.30;;;3.20;;
75429;SDS011;64127;51.488;5.462;2022-11-18T09:47:24;4.67;;;2.90;;
75429;SDS011;64127;51.488;5.462;2022-11-18T09:50:04;9.33;;;3.00;;
75429;SDS011;64127;51.488;5.462;2022-11-18T09:53:09;6.07;;;2.53;;
75429;SDS011;64127;51.488;5.462;2022-11-18T09:55:50;7.27;;;3.43;;
75429;SDS011;64127;51.488;5.462;2022-11-18T09:58:31;6.33;;;2.90;;
75429;SDS011;64127;51.488;5.462;2022-11-18T10:01:13;5.47;;;3.13;;
75429;SDS011;64127;51.488;5.462;2022-11-18T10:03:50;5.23;;;3.10;;
75429;SDS011;64127;51.488;5.462;2022-11-18T10:06:23;7.00;;;3.40;;
75429;SDS011;64127;51.488;5.462;2022-11-18T10:15:18;7.20;;;3.30;;
75429;SDS011;64127;51.488;5.462;2022-11-18T10:21:24;6.30;;;3.10;;
75429;SDS011;64127;51.488;5.462;2022-11-18T10:24:45;6.53;;;3.10;;
75429;SDS011;64127;51.488;5.462;2022-11-18T10:27:23;5.83;;;3.40;;
75429;SDS011;64127;51.488;5.462;2022-11-18T10:30:18;7.10;;;3.37;;
75429;SDS011;64127;51.488;5.462;2022-11-18T10:32:57;6.47;;;3.17;;
75429;SDS011;64127;51.488;5.462;2022-11-18T10:35:34;5.77;;;3.07;;
75429;SDS011;64127;51.488;5.462;2022-11-18T10:43:52;5.20;;;2.87;;
75429;SDS011;64127;51.488;5.462;2022-11-18T10:51:44;5.33;;;2.70;;
75429;SDS011;64127;51.488;5.462;2022-11-18T10:54:42;6.43;;;3.30;;
75429;SDS011;64127;51.488;5.462;2022-11-18T10:59:54;6.17;;;2.97;;
75429;SDS011;64127;51.488;5.462;2022-11-18T11:02:29;6.47;;;3.07;;
75429;SDS011;64127;51.488;5.462;2022-11-18T11:05:21;6.47;;;2.83;;
75429;SDS011;64127;51.488;5.462;2022-11-18T11:08:05;5.50;;;2.50;;
75429;SDS011;64127;51.488;5.462;2022-11-18T11:11:08;4.27;;;2.80;;
75429;SDS011;64127;51.488;5.462;2022-11-18T11:14:01;5.47;;;2.80;;
75429;SDS011;64127;51.488;5.462;2022-11-18T11:17:04;5.20;;;3.17;;
75429;SDS011;64127;51.488;5.462;2022-11-18T11:22:45;7.73;;;3.00;;
75429;SDS011;64127;51.488;5.462;2022-11-18T11:25:19;8.53;;;3.20;;
75429;SDS011;64127;51.488;5.462;2022-11-18T11:43:46;4.87;;;2.60;;
75429;SDS011;64127;51.488;5.462;2022-11-18T11:52:29;7.47;;;2.83;;
75429;SDS011;64127;51.488;5.462;2022-11-18T12:07:02;5.47;;;2.60;;
75429;SDS011;64127;51.488;5.462;2022-11-18T12:09:47;4.97;;;2.50;;
75429;SDS011;64127;51.488;5.462;2022-11-18T12:19:02;6.93;;;2.97;;
75429;SDS011;64127;51.488;5.462;2022-11-18T12:21:53;5.57;;;2.83;;
75429;SDS011;64127;51.488;5.462;2022-11-18T12:37:57;5.13;;;2.57;;
75429;SDS011;64127;51.488;5.462;2022-11-18T12:40:39;6.23;;;2.60;;
75429;SDS011;64127;51.488;5.462;2022-11-18T12:48:59;6.27;;;2.53;;
75429;SDS011;64127;51.488;5.462;2022-11-18T12:51:53;4.70;;;2.33;;
75429;SDS011;64127;51.488;5.462;2022-11-18T12:54:29;5.27;;;2.40;;
75429;SDS011;64127;51.488;5.462;2022-11-18T12:57:22;5.07;;;2.60;;
75429;SDS011;64127;51.488;5.462;2022-11-18T13:00:17;4.53;;;2.40;;
75429;SDS011;64127;51.488;5.462;2022-11-18T13:03:01;5.67;;;2.50;;
75429;SDS011;64127;51.488;5.462;2022-11-18T13:05:33;6.83;;;2.43;;
75429;SDS011;64127;51.488;5.462;2022-11-18T13:08:09;6.20;;;2.57;;
75429;SDS011;64127;51.488;5.462;2022-11-18T13:13:28;7.23;;;2.33;;
75429;SDS011;64127;51.488;5.462;2022-11-18T13:16:04;5.37;;;2.20;;
75429;SDS011;64127;51.488;5.462;2022-11-18T13:19:22;5.17;;;2.70;;
75429;SDS011;64127;51.488;5.462;2022-11-18T13:21:57;8.33;;;3.13;;
75429;SDS011;64127;51.488;5.462;2022-11-18T13:24:51;5.27;;;2.57;;
75429;SDS011;64127;51.488;5.462;2022-11-18T13:30:10;4.03;;;2.60;;
75429;SDS011;64127;51.488;5.462;2022-11-18T13:32:45;4.23;;;2.60;;
75429;SDS011;64127;51.488;5.462;2022-11-18T13:35:22;7.43;;;2.47;;
75429;SDS011;64127;51.488;5.462;2022-11-18T13:37:58;5.07;;;2.43;;
75429;SDS011;64127;51.488;5.462;2022-11-18T13:40:45;5.43;;;2.70;;
75429;SDS011;64127;51.488;5.462;2022-11-18T13:43:34;3.83;;;2.20;;
75429;SDS011;64127;51.488;5.462;2022-11-18T13:46:12;6.33;;;2.43;;
75429;SDS011;64127;51.488;5.462;2022-11-18T13:48:53;6.20;;;2.50;;
75429;SDS011;64127;51.488;5.462;2022-11-18T13:51:29;4.33;;;1.97;;
75429;SDS011;64127;51.488;5.462;2022-11-18T13:54:01;5.47;;;2.60;;
75429;SDS011;64127;51.488;5.462;2022-11-18T13:56:34;5.17;;;2.30;;
75429;SDS011;64127;51.488;5.462;2022-11-18T13:59:11;5.53;;;2.23;;
75429;SDS011;64127;51.488;5.462;2022-11-18T14:01:53;6.83;;;2.63;;
75429;SDS011;64127;51.488;5.462;2022-11-18T14:04:29;14.63;;;3.20;;
75429;SDS011;64127;51.488;5.462;2022-11-18T14:10:09;5.73;;;2.60;;
75429;SDS011;64127;51.488;5.462;2022-11-18T14:12:46;6.17;;;2.70;;
75429;SDS011;64127;51.488;5.462;2022-11-18T14:15:33;5.07;;;2.50;;
75429;SDS011;64127;51.488;5.462;2022-11-18T14:18:19;5.27;;;2.57;;
75429;SDS011;64127;51.488;5.462;2022-11-18T14:21:02;5.87;;;2.47;;
75429;SDS011;64127;51.488;5.462;2022-11-18T14:23:36;4.00;;;2.50;;
75429;SDS011;64127;51.488;5.462;2022-11-18T14:26:12;5.87;;;2.40;;
75429;SDS011;64127;51.488;5.462;2022-11-18T14:29:17;5.30;;;2.40;;
75429;SDS011;64127;51.488;5.462;2022-11-18T14:34:45;4.03;;;2.00;;
75429;SDS011;64127;51.488;5.462;2022-11-18T14:37:31;4.73;;;2.60;;
75429;SDS011;64127;51.488;5.462;2022-11-18T14:40:03;4.50;;;2.00;;
75429;SDS011;64127;51.488;5.462;2022-11-18T14:42:35;4.53;;;2.00;;
75429;SDS011;64127;51.488;5.462;2022-11-18T14:45:10;3.50;;;2.10;;
75429;SDS011;64127;51.488;5.462;2022-11-18T14:47:42;2.83;;;2.10;;
75429;SDS011;64127;51.488;5.462;2022-11-18T14:50:15;3.73;;;2.20;;
75429;SDS011;64127;51.488;5.462;2022-11-18T14:52:47;4.53;;;2.20;;
75429;SDS011;64127;51.488;5.462;2022-11-18T14:55:19;5.37;;;2.50;;
75429;SDS011;64127;51.488;5.462;2022-11-18T14:57:51;3.47;;;2.20;;
75429;SDS011;64127;51.488;5.462;2022-11-18T15:00:23;6.77;;;2.60;;
75429;SDS011;64127;51.488;5.462;2022-11-18T15:02:55;4.10;;;2.60;;
75429;SDS011;64127;51.488;5.462;2022-11-18T15:05:27;3.37;;;2.20;;
75429;SDS011;64127;51.488;5.462;2022-11-18T15:07:59;6.37;;;3.00;;
75429;SDS011;64127;51.488;5.462;2022-11-18T15:10:31;4.20;;;2.63;;
75429;SDS011;64127;51.488;5.462;2022-11-18T15:13:04;4.97;;;3.00;;
75429;SDS011;64127;51.488;5.462;2022-11-18T15:15:36;5.07;;;2.87;;
75429;SDS011;64127;51.488;5.462;2022-11-18T15:18:08;4.53;;;2.40;;
75429;SDS011;64127;51.488;5.462;2022-11-18T15:20:40;4.00;;;2.60;;
75429;SDS011;64127;51.488;5.462;2022-11-18T15:23:12;5.73;;;2.57;;
75429;SDS011;64127;51.488;5.462;2022-11-18T15:25:44;4.03;;;2.40;;
75429;SDS011;64127;51.488;5.462;2022-11-18T15:28:16;4.57;;;2.60;;
75429;SDS011;64127;51.488;5.462;2022-11-18T15:30:48;7.50;;;3.00;;
75429;SDS011;64127;51.488;5.462;2022-11-18T15:33:20;3.73;;;2.37;;
75429;SDS011;64127;51.488;5.462;2022-11-18T15:35:52;4.57;;;2.93;;
75429;SDS011;64127;51.488;5.462;2022-11-18T15:38:24;3.27;;;2.37;;
75429;SDS011;64127;51.488;5.462;2022-11-18T15:40:56;4.87;;;2.77;;
75429;SDS011;64127;51.488;5.462;2022-11-18T15:43:28;6.40;;;2.83;;
75429;SDS011;64127;51.488;5.462;2022-11-18T15:46:00;6.30;;;3.10;;
75429;SDS011;64127;51.488;5.462;2022-11-18T15:48:32;6.50;;;2.77;;
75429;SDS011;64127;51.488;5.462;2022-11-18T15:51:04;4.43;;;2.80;;
75429;SDS011;64127;51.488;5.462;2022-11-18T15:53:42;4.97;;;2.90;;
75429;SDS011;64127;51.488;5.462;2022-11-18T15:58:59;5.23;;;3.40;;
75429;SDS011;64127;51.488;5.462;2022-11-18T16:01:44;5.83;;;3.70;;
75429;SDS011;64127;51.488;5.462;2022-11-18T16:04:19;4.60;;;3.80;;
75429;SDS011;64127;51.488;5.462;2022-11-18T16:06:52;6.03;;;3.67;;
75429;SDS011;64127;51.488;5.462;2022-11-18T16:09:24;7.57;;;3.90;;
75429;SDS011;64127;51.488;5.462;2022-11-18T16:12:16;5.10;;;3.30;;
75429;SDS011;64127;51.488;5.462;2022-11-18T16:15:06;12.00;;;9.73;;
75429;SDS011;64127;51.488;5.462;2022-11-18T16:17:57;7.60;;;6.27;;
75429;SDS011;64127;51.488;5.462;2022-11-18T16:20:29;5.67;;;5.10;;
75429;SDS011;64127;51.488;5.462;2022-11-18T16:23:01;6.93;;;5.60;;
75429;SDS011;64127;51.488;5.462;2022-11-18T16:25:33;7.70;;;5.00;;
75429;SDS011;64127;51.488;5.462;2022-11-18T16:28:05;6.90;;;4.97;;
75429;SDS011;64127;51.488;5.462;2022-11-18T16:30:38;7.17;;;5.07;;
75429;SDS011;64127;51.488;5.462;2022-11-18T16:33:29;7.87;;;5.03;;
75429;SDS011;64127;51.488;5.462;2022-11-18T16:36:01;8.20;;;5.03;;
75429;SDS011;64127;51.488;5.462;2022-11-18T16:38:33;7.63;;;5.30;;
75429;SDS011;64127;51.488;5.462;2022-11-18T16:41:05;7.67;;;5.30;;
75429;SDS011;64127;51.488;5.462;2022-11-18T16:43:57;8.73;;;5.77;;
75429;SDS011;64127;51.488;5.462;2022-11-18T16:46:39;6.30;;;5.57;;
75429;SDS011;64127;51.488;5.462;2022-11-18T16:49:16;7.97;;;6.00;;
75429;SDS011;64127;51.488;5.462;2022-11-18T16:51:51;9.63;;;6.70;;
75429;SDS011;64127;51.488;5.462;2022-11-18T16:56:59;9.60;;;6.57;;
75429;SDS011;64127;51.488;5.462;2022-11-18T16:59:31;11.57;;;6.87;;
75429;SDS011;64127;51.488;5.462;2022-11-18T17:02:03;12.57;;;6.90;;
75429;SDS011;64127;51.488;5.462;2022-11-18T17:04:36;32.87;;;21.97;;
75429;SDS011;64127;51.488;5.462;2022-11-18T17:07:08;24.77;;;16.20;;
75429;SDS011;64127;51.488;5.462;2022-11-18T17:09:41;20.63;;;11.77;;
75429;SDS011;64127;51.488;5.462;2022-11-18T17:12:13;36.87;;;20.23;;
75429;SDS011;64127;51.488;5.462;2022-11-18T17:14:45;66.13;;;34.17;;
75429;SDS011;64127;51.488;5.462;2022-11-18T17:17:17;20.63;;;11.90;;
75429;SDS011;64127;51.488;5.462;2022-11-18T17:19:49;23.97;;;17.63;;
75429;SDS011;64127;51.488;5.462;2022-11-18T17:22:21;14.97;;;11.10;;
75429;SDS011;64127;51.488;5.462;2022-11-18T17:24:53;17.00;;;12.70;;
75429;SDS011;64127;51.488;5.462;2022-11-18T17:27:25;14.30;;;10.13;;
75429;SDS011;64127;51.488;5.462;2022-11-18T17:29:57;15.17;;;10.20;;
75429;SDS011;64127;51.488;5.462;2022-11-18T17:32:29;11.77;;;8.57;;
75429;SDS011;64127;51.488;5.462;2022-11-18T17:35:01;11.20;;;9.27;;
75429;SDS011;64127;51.488;5.462;2022-11-18T17:37:33;13.57;;;9.33;;
75429;SDS011;64127;51.488;5.462;2022-11-18T17:40:05;13.33;;;8.50;;